createdAt,value
2022-09-26T00:01:01.767Z,38.30
2022-09-26T00:04:23.375Z,43.50
2022-09-26T00:07:50.658Z,39.90
2022-09-26T00:11:37.900Z,38.40
2022-09-26T00:15:04.190Z,37.70
2022-09-26T00:18:43.793Z,41.60
2022-09-26T00:22:31.262Z,38.50
2022-09-26T00:26:18.763Z,39.40
2022-09-26T00:30:06.462Z,41.10
2022-09-26T00:33:39.726Z,38.40
2022-09-26T00:37:27.246Z,35.20
2022-09-26T00:41:14.684Z,37.70
2022-09-26T00:45:00.355Z,37.00
2022-09-26T00:48:41.983Z,42.10
2022-09-26T00:51:49.566Z,43.10
2022-09-26T00:55:09.202Z,39.40
2022-09-26T00:58:27.635Z,38.90
2022-09-26T01:02:05.390Z,40.50
2022-09-26T01:05:32.964Z,39.40
2022-09-26T01:09:20.410Z,35.40
2022-09-26T01:13:07.692Z,35.60
2022-09-26T01:16:45.235Z,39.50
2022-09-26T01:20:11.408Z,36.80
2022-09-26T01:23:51.539Z,42.40
2022-09-26T01:27:47.954Z,33.30
2022-09-26T01:31:35.311Z,35.40
2022-09-26T01:35:34.597Z,36.30
2022-09-26T01:39:18.660Z,40.20
2022-09-26T01:43:07.125Z,37.70
2022-09-26T01:46:19.353Z,43.90
2022-09-26T01:49:53.395Z,43.00
2022-09-26T01:53:43.832Z,40.30
2022-09-26T01:57:12.958Z,38.90
2022-09-26T02:00:15.496Z,43.10
2022-09-26T02:04:02.955Z,46.70
2022-09-26T02:07:06.709Z,38.80
2022-09-26T02:10:34.929Z,42.60
2022-09-26T02:14:23.772Z,33.60
2022-09-26T02:17:57.601Z,36.10
2022-09-26T02:21:11.322Z,41.20
2022-09-26T02:24:11.136Z,41.90
2022-09-26T02:27:58.742Z,38.60
2022-09-26T02:30:54.851Z,44.20
2022-09-26T02:34:11.687Z,45.80
2022-09-26T02:37:39.027Z,44.10
2022-09-26T02:41:24.973Z,37.70
2022-09-26T02:44:42.232Z,41.30
2022-09-26T02:48:03.203Z,45.30
2022-09-26T02:51:29.710Z,54.70
2022-09-26T02:55:05.053Z,50.80
2022-09-26T02:58:26.595Z,50.30
2022-09-26T03:02:09.067Z,50.00
2022-09-26T03:05:49.286Z,46.30
2022-09-26T03:08:58.966Z,42.90
2022-09-26T03:12:29.687Z,43.10
2022-09-26T03:15:47.552Z,38.10
2022-09-26T03:19:07.942Z,36.30
2022-09-26T03:21:57.161Z,41.80
2022-09-26T03:24:36.772Z,38.30
2022-09-26T03:28:23.084Z,37.70
2022-09-26T03:32:10.523Z,33.30
2022-09-26T03:35:38.053Z,38.00
2022-09-26T03:39:05.444Z,41.00
2022-09-26T03:42:54.300Z,44.00
2022-09-26T03:46:41.871Z,43.90
2022-09-26T03:50:28.394Z,38.90
2022-09-26T03:53:55.801Z,41.00
2022-09-26T03:57:12.078Z,41.20
2022-09-26T04:00:58.577Z,46.20
2022-09-26T04:03:51.603Z,51.00
2022-09-26T04:07:39.033Z,65.50
2022-09-26T04:10:26.939Z,39.70
2022-09-26T04:14:20.302Z,44.50
2022-09-26T04:17:48.796Z,40.20
2022-09-26T04:21:16.345Z,39.80
2022-09-26T04:24:47.432Z,50.50
2022-09-26T04:28:27.986Z,59.70
2022-09-26T04:32:15.482Z,46.10
2022-09-26T04:36:01.852Z,42.00
2022-09-26T04:39:29.948Z,33.10
2022-09-26T04:43:17.572Z,28.90
2022-09-26T04:46:56.085Z,35.80
2022-09-26T04:50:14.684Z,32.70
2022-09-26T04:53:06.341Z,39.90
2022-09-26T04:55:54.401Z,26.20
2022-09-26T04:59:15.385Z,26.20
2022-09-26T05:02:41.196Z,32.90
2022-09-26T05:06:29.068Z,35.00
2022-09-26T05:09:56.955Z,34.80
2022-09-26T05:13:03.046Z,35.40
2022-09-26T05:16:04.061Z,41.40
2022-09-26T05:19:42.247Z,54.30
2022-09-26T05:23:14.277Z,39.60
2022-09-26T05:26:41.852Z,39.70
2022-09-26T05:30:08.235Z,39.80
2022-09-26T05:33:56.868Z,33.70
2022-09-26T05:37:36.955Z,44.10
2022-09-26T05:41:24.657Z,45.90
2022-09-26T05:45:03.985Z,44.10
2022-09-26T05:48:44.131Z,40.00
2022-09-26T05:52:17.184Z,38.20
2022-09-26T05:55:18.034Z,37.80
2022-09-26T05:58:46.646Z,38.50
2022-09-26T06:02:36.225Z,39.40
2022-09-26T06:06:16.827Z,38.40
2022-09-26T06:08:53.104Z,39.10
2022-09-26T06:12:38.717Z,38.30
2022-09-26T06:16:26.337Z,37.70
2022-09-26T06:19:32.335Z,40.40
2022-09-26T06:23:05.221Z,39.90
2022-09-26T06:26:03.603Z,36.00
2022-09-26T06:29:39.492Z,33.80
2022-09-26T06:33:31.099Z,38.30
2022-09-26T06:37:22.625Z,34.30
2022-09-26T06:41:02.945Z,32.60
2022-09-26T06:44:39.565Z,48.70
2022-09-26T06:48:36.272Z,33.50
2022-09-26T06:52:21.607Z,31.40
2022-09-26T06:56:02.261Z,33.80
2022-09-26T06:59:49.855Z,32.90
2022-09-26T07:03:45.330Z,34.30
2022-09-26T07:07:46.414Z,35.80
2022-09-26T07:15:11.589Z,37.70
2022-09-26T07:18:05.800Z,37.10
2022-09-26T07:21:51.931Z,37.00
2022-09-26T07:25:38.816Z,31.70
2022-09-26T07:29:16.476Z,30.30
2022-09-26T07:33:04.104Z,36.30
2022-09-26T07:36:44.656Z,29.70
2022-09-26T07:40:07.414Z,34.90
2022-09-26T07:47:53.556Z,29.20
2022-09-26T07:51:39.177Z,29.90
2022-09-26T07:55:19.946Z,29.50
2022-09-26T07:59:19.786Z,23.80
2022-09-26T08:03:22.277Z,31.40
2022-09-26T08:07:10.810Z,30.10
2022-09-26T08:11:03.456Z,35.10
2022-09-26T08:14:51.921Z,35.80
2022-09-26T08:18:29.878Z,33.30
2022-09-26T08:22:17.373Z,29.20
2022-09-26T08:26:05.109Z,28.10
2022-09-26T08:29:41.861Z,30.20
2022-09-26T08:33:09.817Z,27.60
2022-09-26T08:36:30.358Z,23.10
2022-09-26T08:40:21.017Z,20.30
2022-09-26T08:44:13.185Z,18.90
2022-09-26T08:48:01.931Z,18.70
2022-09-26T08:52:04.869Z,20.10
2022-09-26T08:56:01.457Z,18.40
2022-09-26T08:59:49.437Z,17.00
2022-09-26T09:03:37.559Z,20.80
2022-09-26T09:07:21.019Z,20.50
2022-09-26T09:10:37.090Z,20.70
2022-09-26T09:14:36.936Z,22.50
2022-09-26T09:18:28.128Z,19.80
2022-09-26T09:22:19.416Z,18.70
2022-09-26T09:25:45.027Z,22.50
2022-09-26T09:29:35.977Z,17.90
2022-09-26T09:33:27.127Z,19.50
2022-09-26T09:37:17.885Z,18.50
2022-09-26T09:41:07.807Z,18.70
2022-09-26T09:45:14.142Z,19.10
2022-09-26T09:49:01.671Z,15.60
2022-09-26T09:52:42.586Z,12.90
2022-09-26T09:56:31.819Z,12.00
2022-09-26T10:00:51.378Z,13.60
2022-09-26T10:04:40.352Z,13.60
2022-09-26T10:08:20.711Z,17.30
2022-09-26T10:12:23.336Z,17.00
2022-09-26T10:16:11.854Z,16.30
2022-09-26T10:20:13.273Z,16.10
2022-09-26T10:24:06.256Z,19.10
2022-09-26T10:28:12.364Z,18.90
2022-09-26T10:32:03.042Z,16.60
2022-09-26T10:36:02.881Z,17.50
2022-09-26T10:39:55.172Z,16.50
2022-09-26T10:43:41.812Z,16.80
2022-09-26T10:47:19.138Z,16.60
2022-09-26T10:51:05.299Z,17.40
2022-09-26T10:54:35.352Z,18.60
2022-09-26T10:58:14.039Z,16.60
2022-09-26T11:02:05.723Z,16.10
2022-09-26T11:05:54.772Z,18.10
2022-09-26T11:09:28.666Z,17.70
2022-09-26T11:13:21.527Z,17.70
2022-09-26T11:17:09.257Z,15.80
2022-09-26T11:21:00.420Z,15.30
2022-09-26T11:24:56.441Z,18.70
2022-09-26T11:28:45.549Z,16.90
2022-09-26T11:32:09.425Z,12.60
2022-09-26T11:35:44.194Z,14.60
2022-09-26T11:39:19.567Z,12.20
2022-09-26T11:43:03.454Z,12.70
2022-09-26T11:46:35.513Z,11.70
2022-09-26T11:50:35.560Z,11.70
2022-09-26T11:54:32.933Z,17.90
2022-09-26T11:58:38.499Z,16.20
2022-09-26T12:02:36.485Z,12.90
2022-09-26T12:06:23.357Z,13.90
2022-09-26T12:10:22.835Z,14.70
2022-09-26T12:14:24.898Z,14.60
2022-09-26T12:17:40.436Z,12.30
2022-09-26T12:21:08.013Z,13.20
2022-09-26T12:24:55.283Z,12.40
2022-09-26T12:28:41.944Z,15.40
2022-09-26T12:32:36.555Z,22.40
2022-09-26T12:36:32.121Z,18.10
2022-09-26T12:40:01.383Z,19.30
2022-09-26T12:43:40.104Z,15.00
2022-09-26T12:47:19.515Z,15.50
2022-09-26T12:51:02.343Z,14.50
2022-09-26T12:54:50.319Z,13.30
2022-09-26T12:58:44.018Z,13.70
2022-09-26T13:02:31.920Z,11.00
2022-09-26T13:06:25.660Z,10.50
2022-09-26T13:09:59.732Z,12.80
2022-09-26T13:13:43.251Z,12.00
2022-09-26T13:17:23.466Z,6.70
2022-09-26T13:21:03.091Z,10.80
2022-09-26T13:24:43.704Z,8.30
2022-09-26T13:28:31.534Z,9.10
2022-09-26T13:32:19.055Z,6.00
2022-09-26T13:35:53.019Z,3.10
2022-09-26T13:39:46.553Z,4.00
2022-09-26T13:43:30.943Z,4.40
2022-09-26T13:47:14.380Z,3.10
2022-09-26T13:50:32.509Z,2.20
2022-09-26T13:53:58.779Z,3.40
2022-09-26T13:57:45.228Z,4.80
2022-09-26T14:01:33.304Z,2.70
2022-09-26T14:05:21.172Z,2.80
2022-09-26T14:09:19.114Z,4.20
2022-09-26T14:13:32.640Z,2.00
2022-09-26T14:17:07.124Z,2.80
2022-09-26T14:20:38.190Z,1.70
2022-09-26T14:24:42.635Z,1.70
2022-09-26T14:28:32.176Z,1.90
2022-09-26T14:32:25.769Z,4.20
2022-09-26T14:36:16.520Z,2.80
2022-09-26T14:40:04.120Z,6.30
2022-09-26T14:43:57.448Z,2.30
2022-09-26T14:47:45.270Z,5.30
2022-09-26T14:51:41.628Z,2.80
2022-09-26T14:55:29.385Z,1.30
2022-09-26T14:59:18.457Z,2.80
2022-09-26T15:03:08.983Z,1.20
2022-09-26T15:06:57.189Z,1.60
2022-09-26T15:10:44.779Z,3.60
2022-09-26T15:14:38.879Z,3.90
2022-09-26T15:17:53.654Z,7.90
2022-09-26T15:21:27.919Z,3.20
2022-09-26T15:25:20.288Z,2.20
2022-09-26T15:28:49.916Z,3.60
2022-09-26T15:32:02.601Z,11.30
2022-09-26T15:35:51.164Z,4.70
2022-09-26T15:39:17.803Z,2.50
2022-09-26T15:42:52.937Z,2.70
2022-09-26T15:46:13.031Z,4.10
2022-09-26T15:49:51.794Z,4.90
2022-09-26T15:53:33.351Z,3.10
2022-09-26T15:57:24.104Z,4.30
2022-09-26T16:00:57.669Z,4.30
2022-09-26T16:05:04.262Z,3.80
2022-09-26T16:08:54.723Z,6.50
2022-09-26T16:12:45.090Z,7.40
2022-09-26T16:16:27.099Z,2.20
2022-09-26T16:20:06.597Z,8.40
2022-09-26T16:23:51.256Z,13.90
2022-09-26T16:27:39.635Z,17.00
2022-09-26T16:31:21.559Z,17.00
2022-09-26T16:35:16.502Z,13.80
2022-09-26T16:39:04.100Z,26.60
2022-09-26T16:42:58.863Z,22.00
2022-09-26T16:46:54.430Z,11.90
2022-09-26T16:51:05.603Z,19.20
2022-09-26T16:54:55.659Z,5.60
2022-09-26T16:58:36.435Z,10.80
2022-09-26T17:02:28.931Z,13.30
2022-09-26T17:05:46.045Z,16.60
2022-09-26T17:09:18.125Z,16.20
2022-09-26T17:13:08.196Z,9.60
2022-09-26T17:16:39.788Z,19.80
2022-09-26T17:20:08.173Z,34.90
2022-09-26T17:23:57.933Z,51.50
2022-09-26T17:27:21.069Z,53.90
2022-09-26T17:30:55.045Z,57.60
2022-09-26T17:34:36.975Z,71.90
2022-09-26T17:38:05.026Z,69.30
2022-09-26T17:41:12.825Z,61.50
2022-09-26T17:44:41.292Z,85.20
2022-09-26T17:48:25.385Z,82.20
2022-09-26T17:51:32.598Z,70.50
2022-09-26T17:55:23.250Z,55.20
2022-09-26T17:58:52.594Z,47.90
2022-09-26T18:02:42.148Z,75.70
2022-09-26T18:06:05.242Z,92.20
2022-09-26T18:09:40.215Z,160.30
2022-09-26T18:13:13.351Z,200.50
2022-09-26T18:16:38.578Z,233.10
2022-09-26T18:19:58.802Z,119.40
2022-09-26T18:23:18.289Z,81.00
2022-09-26T18:26:43.979Z,100.10
2022-09-26T18:30:18.694Z,83.10
2022-09-26T18:33:19.058Z,109.70
2022-09-26T18:36:47.361Z,61.10
2022-09-26T18:40:36.288Z,80.20
2022-09-26T18:43:32.099Z,87.30
2022-09-26T18:46:48.787Z,86.60
2022-09-26T18:50:27.156Z,102.10
2022-09-26T18:53:26.913Z,86.70
2022-09-26T18:57:08.279Z,85.20
2022-09-26T19:00:48.285Z,88.10
2022-09-26T19:04:16.335Z,91.30
2022-09-26T19:07:33.412Z,92.50
2022-09-26T19:10:26.630Z,100.60
2022-09-26T19:13:59.205Z,85.10
2022-09-26T19:17:33.262Z,82.90
2022-09-26T19:21:01.090Z,100.80
2022-09-26T19:24:51.133Z,88.90
2022-09-26T19:28:30.530Z,85.50
2022-09-26T19:32:18.367Z,84.20
2022-09-26T19:35:46.209Z,81.80
2022-09-26T19:38:58.938Z,83.90
2022-09-26T19:42:40.641Z,83.50
2022-09-26T19:46:29.055Z,77.30
2022-09-26T19:50:10.493Z,82.70
2022-09-26T19:52:51.305Z,78.50
2022-09-26T19:56:12.665Z,82.40
2022-09-26T19:59:36.666Z,76.10
2022-09-26T20:03:04.962Z,69.80
2022-09-26T20:06:14.674Z,66.50
2022-09-26T20:10:03.609Z,68.40
2022-09-26T20:13:05.674Z,71.30
2022-09-26T20:15:58.692Z,61.50
2022-09-26T20:19:15.469Z,62.70
2022-09-26T20:22:23.071Z,74.60
2022-09-26T20:25:38.641Z,66.70
2022-09-26T20:28:45.301Z,63.00
2022-09-26T20:32:23.532Z,68.30
2022-09-26T20:36:08.772Z,55.80
2022-09-26T20:39:37.048Z,62.90
2022-09-26T20:43:18.570Z,67.10
2022-09-26T20:46:54.148Z,63.50
2022-09-26T20:50:34.376Z,65.00
2022-09-26T20:54:16.007Z,58.20
2022-09-26T20:57:33.700Z,60.00
2022-09-26T21:01:21.975Z,50.80
2022-09-26T21:05:00.337Z,42.50
2022-09-26T21:08:36.284Z,38.40
2022-09-26T21:11:47.865Z,41.90
2022-09-26T21:15:28.729Z,47.10
2022-09-26T21:19:16.716Z,50.20
2022-09-26T21:22:16.260Z,39.40
2022-09-26T21:25:38.232Z,40.30
2022-09-26T21:29:25.931Z,42.20
2022-09-26T21:33:13.452Z,40.30
2022-09-26T21:36:13.811Z,45.70
2022-09-26T21:39:45.340Z,46.20
2022-09-26T21:43:26.627Z,43.50
2022-09-26T21:47:14.298Z,36.30
2022-09-26T21:50:43.335Z,39.00
2022-09-26T21:54:10.881Z,36.20
2022-09-26T21:57:58.750Z,42.60
2022-09-26T22:01:37.614Z,41.70
2022-09-26T22:05:25.178Z,46.40
2022-09-26T22:08:01.820Z,52.80
2022-09-26T22:11:49.541Z,51.20
2022-09-26T22:15:27.524Z,54.80
2022-09-26T22:19:08.917Z,49.90
2022-09-26T22:22:08.477Z,47.40
2022-09-26T22:25:26.637Z,45.10
2022-09-26T22:28:52.549Z,52.00
2022-09-26T22:32:00.835Z,52.30
2022-09-26T22:35:31.981Z,47.70
2022-09-26T22:38:46.164Z,53.30
2022-09-26T22:42:23.668Z,55.60
2022-09-26T22:46:03.945Z,48.40
2022-09-26T22:49:11.056Z,51.60
2022-09-26T22:52:58.312Z,45.40
2022-09-26T22:56:26.396Z,50.10
2022-09-26T23:00:05.151Z,43.50
2022-09-26T23:03:35.241Z,48.20
2022-09-26T23:07:02.713Z,49.90
2022-09-26T23:10:40.215Z,45.10
2022-09-26T23:14:21.230Z,50.90
2022-09-26T23:17:01.204Z,55.20
2022-09-26T23:19:40.728Z,50.40
2022-09-26T23:22:39.256Z,54.00
2022-09-26T23:26:18.814Z,56.80
2022-09-26T23:29:58.763Z,54.80
2022-09-26T23:33:01.061Z,54.00
2022-09-26T23:36:32.205Z,56.60
2022-09-26T23:39:19.154Z,65.70
2022-09-26T23:42:46.937Z,65.50
2022-09-26T23:45:55.721Z,63.60
2022-09-26T23:49:21.146Z,60.70
2022-09-26T23:52:21.749Z,58.80
2022-09-26T23:55:59.208Z,64.40
2022-09-26T23:59:46.669Z,57.90
